Time;durP1;ratioP1;P1;durP2;ratioP2;P2;SDS_P1;SDS_P2;PMS_P1;PMS_P2;Temp;Humidity;BMP_temperature;BMP_pressure;BME280_temperature;BME280_humidity;BME280_pressure;Samples;Min_cycle;Max_cycle;Signal;HPM_P1;HPM_P2
2022/10/30 00:00:34;;;;;;;8.87;6.83;;;16.10;99.90;;;;;;6212720;23;20175;-66
2022/10/30 00:03:00;;;;;;;7.83;7.07;;;16.10;99.90;;;;;;6224233;23;20147;-65
2022/10/30 00:05:26;;;;;;;8.37;6.03;;;16.10;99.90;;;;;;6213031;23;20166;-66
2022/10/30 00:07:55;;;;;;;10.03;6.37;;;16.10;99.90;;;;;;6224142;23;20195;-66
2022/10/30 00:10:21;;;;;;;8.83;5.93;;;16.10;99.90;;;;;;6212276;23;20171;-67
2022/10/30 00:12:47;;;;;;;8.77;6.30;;;16.20;99.90;;;;;;6212474;23;20229;-67
2022/10/30 00:15:12;;;;;;;6.47;5.87;;;16.20;99.90;;;;;;6212541;23;20147;-65
2022/10/30 00:17:38;;;;;;;6.57;5.97;;;16.10;99.90;;;;;;6212394;23;20151;-65
2022/10/30 00:20:05;;;;;;;7.10;6.50;;;16.10;99.90;;;;;;6212203;23;20312;-65
2022/10/30 00:22:30;;;;;;;11.37;6.63;;;16.10;99.90;;;;;;6224030;23;20590;-65
2022/10/30 00:24:56;;;;;;;12.63;7.03;;;16.10;99.90;;;;;;6224035;23;20139;-65
2022/10/30 00:27:22;;;;;;;6.70;6.10;;;16.10;99.90;;;;;;6224073;23;20652;-65
2022/10/30 00:29:47;;;;;;;6.87;6.27;;;16.10;99.90;;;;;;6223576;23;20185;-65
2022/10/30 00:32:13;;;;;;;7.60;6.83;;;16.10;99.90;;;;;;6224253;23;20143;-65
2022/10/30 00:34:39;;;;;;;8.73;6.97;;;16.10;99.90;;;;;;6224043;23;20151;-66
2022/10/30 00:37:04;;;;;;;12.23;7.00;;;16.10;99.90;;;;;;6224330;23;20146;-65
2022/10/30 00:39:30;;;;;;;19.03;7.73;;;16.00;99.90;;;;;;6211788;23;20186;-66
2022/10/30 00:41:56;;;;;;;12.30;7.47;;;16.00;99.90;;;;;;6223968;23;20583;-66
2022/10/30 00:44:45;;;;;;;7.63;6.80;;;16.00;99.90;;;;;;6212601;23;20154;-65
2022/10/30 00:47:32;;;;;;;12.17;6.70;;;15.90;99.90;;;;;;6212296;23;20201;-65
2022/10/30 00:50:35;;;;;;;11.57;7.20;;;15.90;99.90;;;;;;6223640;23;20485;-65
2022/10/30 00:53:11;;;;;;;7.47;6.70;;;15.90;99.90;;;;;;6224368;23;20139;-66
2022/10/30 00:55:42;;;;;;;10.43;7.03;;;15.90;99.90;;;;;;6224132;23;20141;-66
2022/10/30 00:58:14;;;;;;;9.63;7.27;;;15.90;99.90;;;;;;6223669;23;20201;-66
2022/10/30 01:00:45;;;;;;;12.57;7.60;;;15.90;99.90;;;;;;6225785;23;20607;-65
2022/10/30 01:03:11;;;;;;;12.63;9.03;;;15.80;99.90;;;;;;6226045;23;20570;-66
2022/10/30 01:05:37;;;;;;;8.43;7.63;;;15.80;99.90;;;;;;6226119;23;20179;-66
2022/10/30 01:08:03;;;;;;;10.53;8.20;;;15.90;99.90;;;;;;6226034;23;20139;-65
2022/10/30 01:10:29;;;;;;;8.60;7.43;;;15.80;99.90;;;;;;6225526;23;20166;-65
2022/10/30 01:12:56;;;;;;;9.10;6.30;;;15.80;99.90;;;;;;6225834;23;20147;-65
2022/10/30 01:15:41;;;;;;;7.83;6.83;;;15.80;99.90;;;;;;6225974;23;20201;-65
2022/10/30 01:18:33;;;;;;;8.20;7.40;;;15.80;99.90;;;;;;6225717;23;20163;-65
2022/10/30 01:21:44;;;;;;;7.77;7.13;;;15.80;99.90;;;;;;6211553;23;20206;-65
2022/10/30 01:24:17;;;;;;;7.87;6.97;;;15.90;99.90;;;;;;6225899;23;20538;-66
2022/10/30 01:27:07;;;;;;;8.50;7.70;;;15.90;99.90;;;;;;6225745;23;20158;-66
2022/10/30 01:29:55;;;;;;;10.20;7.20;;;15.90;99.90;;;;;;6224787;23;20577;-66
2022/10/30 01:32:50;;;;;;;14.03;8.17;;;15.80;99.90;;;;;;6225183;23;20528;-66
2022/10/30 01:35:46;;;;;;;8.00;7.20;;;15.70;99.90;;;;;;6225317;23;20150;-66
2022/10/30 01:38:18;;;;;;;9.00;7.23;;;15.70;99.90;;;;;;6225344;23;20233;-66
2022/10/30 01:40:44;;;;;;;8.23;7.07;;;15.60;99.90;;;;;;6224707;23;20166;-66
2022/10/30 01:43:10;;;;;;;8.53;7.47;;;15.60;99.90;;;;;;6225040;23;20143;-66
2022/10/30 01:45:54;;;;;;;9.20;8.23;;;15.50;99.90;;;;;;6224967;23;20147;-66
2022/10/30 01:48:30;;;;;;;8.73;6.70;;;15.40;99.90;;;;;;6225147;23;20207;-66
2022/10/30 01:50:58;;;;;;;13.70;7.50;;;15.40;99.90;;;;;;6224708;23;20174;-66
2022/10/30 01:53:30;;;;;;;9.43;7.63;;;15.30;99.90;;;;;;6224963;23;20151;-66
2022/10/30 01:56:04;;;;;;;11.83;7.67;;;15.20;99.90;;;;;;6225103;23;20151;-66
2022/10/30 01:58:59;;;;;;;7.87;7.10;;;15.10;99.90;;;;;;6225170;23;20165;-66
2022/10/30 02:01:27;;;;;;;14.10;7.73;;;15.10;99.90;;;;;;6224678;23;20139;-66
2022/10/30 02:03:52;;;;;;;7.40;6.70;;;15.00;99.90;;;;;;6225024;23;20143;-66
2022/10/30 02:06:18;;;;;;;8.43;7.73;;;14.90;99.90;;;;;;6225079;23;20205;-66
2022/10/30 02:08:43;;;;;;;8.57;7.80;;;14.80;99.90;;;;;;6225008;23;20162;-66
2022/10/30 02:11:10;;;;;;;7.97;7.17;;;14.80;99.90;;;;;;6223981;23;20166;-66
2022/10/30 02:13:36;;;;;;;8.97;7.80;;;14.70;99.90;;;;;;6224887;23;20150;-66
2022/10/30 02:16:02;;;;;;;13.93;7.87;;;14.70;99.90;;;;;;6225199;23;20151;-66
2022/10/30 02:18:28;;;;;;;13.63;8.27;;;14.70;99.90;;;;;;6225048;23;20500;-66
2022/10/30 02:20:54;;;;;;;10.50;8.43;;;14.60;99.90;;;;;;6224528;23;20236;-66
2022/10/30 02:23:21;;;;;;;8.30;7.70;;;14.60;99.90;;;;;;6224552;23;20222;-66
2022/10/30 02:25:47;;;;;;;16.13;8.23;;;14.50;99.90;;;;;;6224654;23;20143;-66
2022/10/30 02:28:12;;;;;;;11.10;8.13;;;14.50;99.90;;;;;;6224678;23;20158;-66
2022/10/30 02:30:39;;;;;;;9.23;8.03;;;14.40;99.90;;;;;;6224237;22;20217;-66
2022/10/30 02:33:05;;;;;;;11.30;8.70;;;14.30;99.90;;;;;;6224669;23;20150;-66
2022/10/30 02:35:31;;;;;;;11.10;8.00;;;14.30;99.90;;;;;;6224430;23;20457;-66
2022/10/30 02:37:56;;;;;;;8.93;7.87;;;14.20;99.90;;;;;;6224334;23;20151;-66
2022/10/30 02:40:22;;;;;;;12.80;7.93;;;14.20;99.90;;;;;;6224135;23;20290;-66
2022/10/30 02:42:52;;;;;;;12.07;8.67;;;14.10;99.90;;;;;;6224481;23;20143;-66
2022/10/30 02:45:18;;;;;;;8.67;7.63;;;14.10;99.90;;;;;;6224616;23;20189;-66
2022/10/30 02:47:43;;;;;;;10.27;9.00;;;14.10;99.90;;;;;;6224388;23;20605;-65
2022/10/30 02:50:09;;;;;;;9.10;8.23;;;14.10;99.90;;;;;;6224474;23;20170;-66
2022/10/30 02:52:34;;;;;;;8.83;8.03;;;14.00;99.90;;;;;;6224251;23;20494;-66
2022/10/30 02:55:00;;;;;;;10.13;9.17;;;14.00;99.90;;;;;;6225014;23;20154;-66
2022/10/30 02:57:26;;;;;;;14.43;7.73;;;14.00;99.90;;;;;;6224552;23;20650;-66
2022/10/30 02:59:51;;;;;;;12.73;8.47;;;13.90;99.90;;;;;;6223796;23;20299;-66
2022/10/30 03:02:17;;;;;;;12.50;8.03;;;13.90;99.90;;;;;;6212857;23;20622;-66
2022/10/30 03:04:42;;;;;;;8.17;7.47;;;13.80;99.90;;;;;;6224418;23;20143;-66
2022/10/30 03:07:08;;;;;;;9.27;7.77;;;13.80;99.90;;;;;;6224338;23;20158;-66
2022/10/30 03:09:33;;;;;;;12.83;8.80;;;13.70;99.90;;;;;;6223992;23;20622;-66
2022/10/30 03:11:59;;;;;;;7.17;6.40;;;13.70;99.90;;;;;;6224483;23;20161;-66
2022/10/30 03:14:25;;;;;;;10.93;7.57;;;13.60;99.90;;;;;;6224448;23;20174;-66
2022/10/30 03:16:51;;;;;;;12.87;8.70;;;13.50;99.90;;;;;;6224320;23;20174;-66
2022/10/30 03:19:17;;;;;;;10.70;7.80;;;13.50;99.90;;;;;;6224171;23;20567;-66
2022/10/30 03:21:43;;;;;;;10.43;9.10;;;13.40;99.90;;;;;;6223918;23;20531;-66
2022/10/30 03:24:09;;;;;;;11.17;8.47;;;13.40;99.90;;;;;;6224285;23;20173;-66
2022/10/30 03:26:34;;;;;;;13.73;8.57;;;13.30;99.90;;;;;;6223998;23;20146;-66
2022/10/30 03:29:00;;;;;;;9.37;8.43;;;13.30;99.90;;;;;;6223859;23;20147;-66
2022/10/30 03:31:25;;;;;;;9.27;8.47;;;13.20;99.90;;;;;;6214231;22;20870;-68
2022/10/30 03:33:51;;;;;;;12.37;8.67;;;13.20;99.90;;;;;;6224218;23;20155;-68
2022/10/30 03:36:17;;;;;;;8.93;8.00;;;13.10;99.90;;;;;;6212526;23;20157;-69
2022/10/30 03:38:42;;;;;;;10.97;7.80;;;13.10;99.90;;;;;;6224081;23;20170;-69
2022/10/30 03:41:09;;;;;;;10.67;6.93;;;13.10;99.90;;;;;;6212009;23;20228;-68
2022/10/30 03:43:34;;;;;;;8.63;7.73;;;13.00;99.90;;;;;;6224117;23;20212;-68
2022/10/30 03:46:00;;;;;;;8.30;7.50;;;12.90;99.90;;;;;;6224465;23;20606;-68
2022/10/30 03:48:28;;;;;;;9.30;7.90;;;12.80;99.90;;;;;;6224240;23;20159;-68
2022/10/30 03:50:58;;;;;;;8.80;7.77;;;12.80;99.90;;;;;;6212379;23;20178;-68
2022/10/30 03:53:25;;;;;;;10.30;8.23;;;12.80;99.90;;;;;;6224209;23;20598;-68
2022/10/30 03:55:52;;;;;;;9.63;8.47;;;12.70;99.90;;;;;;6211580;23;20225;-68
2022/10/30 03:58:18;;;;;;;15.03;8.73;;;12.70;99.90;;;;;;6223764;23;20202;-68
2022/10/30 04:00:43;;;;;;;9.20;8.30;;;12.60;99.90;;;;;;6211008;23;20649;-68
2022/10/30 04:03:09;;;;;;;9.37;8.07;;;12.60;99.90;;;;;;6224138;23;20154;-68
2022/10/30 04:05:36;;;;;;;9.70;7.50;;;12.50;99.90;;;;;;6223652;23;20147;-68
2022/10/30 04:08:06;;;;;;;15.00;8.57;;;12.40;99.90;;;;;;6212154;23;20280;-68
2022/10/30 04:10:32;;;;;;;17.20;8.27;;;12.40;99.90;;;;;;6212219;23;20174;-68
2022/10/30 04:13:03;;;;;;;11.37;7.80;;;12.40;99.90;;;;;;6212171;23;20242;-68
2022/10/30 04:15:29;;;;;;;12.63;8.43;;;12.40;99.90;;;;;;6224232;23;20151;-68
2022/10/30 04:17:55;;;;;;;13.33;7.03;;;12.30;99.90;;;;;;6223945;23;20238;-69
2022/10/30 04:20:22;;;;;;;8.40;7.43;;;12.30;99.90;;;;;;6211785;23;20194;-68
2022/10/30 04:22:48;;;;;;;8.53;7.83;;;12.30;99.90;;;;;;6223799;23;20166;-68
2022/10/30 04:25:13;;;;;;;12.70;8.73;;;12.30;99.90;;;;;;6223639;23;20599;-68
2022/10/30 04:27:43;;;;;;;8.60;7.80;;;12.20;99.90;;;;;;6212167;23;20180;-68
2022/10/30 04:30:11;;;;;;;7.57;6.93;;;12.10;99.90;;;;;;6191836;23;20276;-68
2022/10/30 04:32:46;;;;;;;8.73;7.90;;;12.10;99.90;;;;;;6253908;23;20150;-68
2022/10/30 04:35:11;;;;;;;10.93;7.60;;;12.10;99.90;;;;;;6254359;23;20133;-68
2022/10/30 04:37:37;;;;;;;11.93;8.20;;;12.00;99.90;;;;;;6254163;23;20150;-68
2022/10/30 04:40:03;;;;;;;10.43;7.90;;;12.00;99.90;;;;;;6216525;23;20255;-68
2022/10/30 04:42:29;;;;;;;10.57;8.37;;;12.10;99.90;;;;;;6253918;23;20165;-68
2022/10/30 04:44:54;;;;;;;13.23;8.67;;;12.10;99.90;;;;;;6254237;23;20169;-69
2022/10/30 04:47:20;;;;;;;13.63;8.57;;;12.10;99.90;;;;;;6216967;23;20150;-68
2022/10/30 04:49:45;;;;;;;12.03;8.47;;;12.10;99.90;;;;;;6253623;22;20173;-68
2022/10/30 04:52:11;;;;;;;9.90;8.43;;;12.10;99.90;;;;;;6216784;23;20233;-68
2022/10/30 04:54:36;;;;;;;11.07;8.20;;;12.10;99.90;;;;;;6217069;23;20161;-68
2022/10/30 04:57:02;;;;;;;9.57;8.50;;;12.20;99.90;;;;;;6254095;23;20492;-68
2022/10/30 04:59:28;;;;;;;12.67;9.17;;;12.20;99.90;;;;;;6253297;22;20174;-68
2022/10/30 05:01:53;;;;;;;9.40;8.37;;;12.10;99.90;;;;;;6254007;23;20601;-68
2022/10/30 05:04:19;;;;;;;9.83;8.80;;;12.10;99.90;;;;;;6254018;23;20486;-68
2022/10/30 05:06:44;;;;;;;10.50;9.30;;;12.10;99.90;;;;;;6254070;23;20150;-68
2022/10/30 05:09:10;;;;;;;8.17;7.47;;;12.10;99.90;;;;;;6253818;23;20150;-68
2022/10/30 05:11:36;;;;;;;11.23;8.70;;;12.10;99.90;;;;;;6216802;23;20629;-68
2022/10/30 05:14:01;;;;;;;12.70;8.50;;;12.10;99.90;;;;;;6253947;23;20157;-68
2022/10/30 05:16:27;;;;;;;10.43;9.33;;;12.10;99.90;;;;;;6254039;23;20150;-68
2022/10/30 05:18:52;;;;;;;14.57;7.83;;;12.10;99.90;;;;;;6254121;23;20174;-69
2022/10/30 05:21:18;;;;;;;10.50;8.60;;;12.10;99.90;;;;;;6253815;22;20166;-68
2022/10/30 05:23:43;;;;;;;10.73;8.10;;;12.00;99.90;;;;;;6216809;23;20150;-69
2022/10/30 05:26:09;;;;;;;16.33;8.50;;;12.00;99.90;;;;;;6216647;23;20154;-68
2022/10/30 05:28:34;;;;;;;12.73;8.33;;;12.00;99.90;;;;;;6216751;23;20245;-68
2022/10/30 05:31:00;;;;;;;11.90;7.80;;;12.00;99.90;;;;;;6232276;22;20506;-68
2022/10/30 05:33:26;;;;;;;13.67;7.77;;;11.90;99.90;;;;;;6223408;23;20146;-68
2022/10/30 05:35:51;;;;;;;14.47;7.80;;;11.90;99.90;;;;;;6223510;23;20155;-68
2022/10/30 05:38:17;;;;;;;9.67;7.70;;;11.90;99.90;;;;;;6223308;23;20711;-68
2022/10/30 05:40:45;;;;;;;13.03;7.83;;;11.90;99.90;;;;;;6211364;23;20209;-68
2022/10/30 05:43:11;;;;;;;11.23;8.03;;;11.80;99.90;;;;;;6223495;23;20226;-68
2022/10/30 05:45:36;;;;;;;9.20;7.27;;;11.80;99.90;;;;;;6224911;23;20158;-68
2022/10/30 05:48:04;;;;;;;13.90;8.43;;;11.80;99.90;;;;;;6213862;23;20157;-68
2022/10/30 05:50:31;;;;;;;12.13;8.07;;;11.80;99.90;;;;;;6224946;23;20159;-68
2022/10/30 05:52:58;;;;;;;13.43;7.90;;;11.80;99.90;;;;;;6213421;23;20155;-69
2022/10/30 05:55:24;;;;;;;10.57;8.80;;;11.70;99.90;;;;;;6213880;23;20155;-68
2022/10/30 05:57:49;;;;;;;11.13;7.77;;;11.70;99.90;;;;;;6213518;23;20234;-69
2022/10/30 06:00:15;;;;;;;12.03;7.43;;;11.70;99.90;;;;;;6224606;23;20668;-68
2022/10/30 06:02:41;;;;;;;13.90;9.23;;;11.70;99.90;;;;;;6225259;23;20167;-68
2022/10/30 06:05:07;;;;;;;9.00;8.13;;;11.70;99.90;;;;;;6225478;23;20178;-68
2022/10/30 06:07:32;;;;;;;14.33;8.30;;;11.70;99.90;;;;;;6213290;23;20206;-68
2022/10/30 06:09:58;;;;;;;10.33;8.07;;;11.60;99.90;;;;;;6213029;23;20198;-68
2022/10/30 06:12:23;;;;;;;13.07;8.83;;;11.60;99.90;;;;;;6213449;23;20151;-68
2022/10/30 06:14:49;;;;;;;12.90;8.87;;;11.60;99.90;;;;;;6213621;23;20165;-68
2022/10/30 06:17:14;;;;;;;11.30;8.60;;;11.60;99.90;;;;;;6225222;23;20591;-67
2022/10/30 06:19:40;;;;;;;20.03;8.57;;;11.70;99.90;;;;;;6224327;23;20186;-67
2022/10/30 06:22:06;;;;;;;9.53;8.03;;;11.70;99.90;;;;;;6225084;23;20143;-67
2022/10/30 06:24:31;;;;;;;12.80;8.80;;;11.80;99.90;;;;;;6224901;23;20217;-67
2022/10/30 06:26:58;;;;;;;9.80;8.63;;;11.80;99.90;;;;;;6224937;23;20147;-67
2022/10/30 06:29:23;;;;;;;15.10;8.57;;;11.90;99.90;;;;;;6224394;23;20224;-67
2022/10/30 06:31:49;;;;;;;10.10;7.87;;;11.90;99.90;;;;;;6225055;23;20151;-68
2022/10/30 06:34:14;;;;;;;11.90;8.53;;;11.80;99.90;;;;;;6212916;23;20155;-67
2022/10/30 06:36:40;;;;;;;9.13;8.23;;;11.90;99.90;;;;;;6225144;23;20147;-67
2022/10/30 06:39:05;;;;;;;13.37;8.97;;;11.90;99.90;;;;;;6224488;23;20170;-68
2022/10/30 06:41:32;;;;;;;11.23;8.53;;;11.90;99.90;;;;;;6224487;23;20174;-67
2022/10/30 06:43:58;;;;;;;11.07;8.17;;;11.90;99.90;;;;;;6213389;23;20154;-68
2022/10/30 06:46:23;;;;;;;9.93;8.43;;;11.90;99.90;;;;;;6225086;23;20147;-67
2022/10/30 06:48:49;;;;;;;11.67;10.30;;;11.90;99.90;;;;;;6210729;23;20162;-67
2022/10/30 06:51:15;;;;;;;16.73;9.53;;;12.00;99.90;;;;;;6224468;23;20197;-67
2022/10/30 06:53:41;;;;;;;15.33;9.00;;;12.00;99.90;;;;;;6224277;23;20150;-68
2022/10/30 06:56:08;;;;;;;14.30;9.90;;;12.10;99.90;;;;;;6224436;23;20175;-67
2022/10/30 06:58:37;;;;;;;11.17;9.30;;;12.10;99.90;;;;;;6224191;23;20518;-66
2022/10/30 07:01:04;;;;;;;9.53;8.63;;;12.20;99.90;;;;;;6212501;23;20627;-67
2022/10/30 07:03:30;;;;;;;10.17;9.10;;;12.30;99.90;;;;;;6224555;23;20142;-67
2022/10/30 07:05:55;;;;;;;11.50;9.67;;;12.40;99.90;;;;;;6224588;23;20427;-67
2022/10/30 07:08:21;;;;;;;11.73;9.60;;;12.50;99.90;;;;;;6224236;23;20147;-66
2022/10/30 07:10:46;;;;;;;14.70;10.50;;;12.60;99.90;;;;;;6223877;23;20236;-67
2022/10/30 07:13:12;;;;;;;12.70;10.13;;;12.70;99.90;;;;;;6212611;23;20228;-68
2022/10/30 07:15:38;;;;;;;19.00;9.00;;;12.80;99.90;;;;;;6212612;23;20151;-67
2022/10/30 07:18:04;;;;;;;15.43;8.90;;;12.90;99.90;;;;;;6224250;23;20209;-67
2022/10/30 07:20:32;;;;;;;11.03;9.47;;;12.90;99.90;;;;;;6223965;23;20166;-67
2022/10/30 07:22:58;;;;;;;14.70;9.27;;;13.00;99.90;;;;;;6224309;23;20151;-67
2022/10/30 07:25:23;;;;;;;11.27;10.13;;;13.10;99.90;;;;;;6224163;23;20479;-67
2022/10/30 07:27:51;;;;;;;12.23;9.73;;;13.30;99.90;;;;;;6224104;23;20217;-67
2022/10/30 07:30:20;;;;;;;18.33;10.50;;;13.50;99.90;;;;;;6212055;23;20190;-67
2022/10/30 07:32:45;;;;;;;12.93;10.30;;;13.70;99.90;;;;;;6213200;23;20166;-68
2022/10/30 07:35:13;;;;;;;13.10;9.50;;;14.10;99.90;;;;;;6212651;23;20150;-67
2022/10/30 07:37:39;;;;;;;16.53;10.77;;;14.50;99.90;;;;;;6223973;23;20159;-68
2022/10/30 07:40:06;;;;;;;11.00;9.23;;;14.90;99.90;;;;;;6223863;23;20183;-67
2022/10/30 07:42:32;;;;;;;11.13;8.90;;;15.40;99.90;;;;;;6224054;23;20533;-67
2022/10/30 07:44:58;;;;;;;10.60;8.30;;;15.70;99.90;;;;;;6212372;23;20201;-67
2022/10/30 07:47:23;;;;;;;12.50;7.93;;;15.90;99.90;;;;;;6224443;23;20147;-67
2022/10/30 07:49:49;;;;;;;9.37;8.10;;;16.20;99.90;;;;;;6212182;23;20207;-68
2022/10/30 07:52:15;;;;;;;8.40;7.53;;;16.50;99.90;;;;;;6224333;23;20154;-68
2022/10/30 07:54:40;;;;;;;10.27;7.67;;;17.00;99.90;;;;;;6212775;23;20613;-67
2022/10/30 07:57:06;;;;;;;8.87;6.40;;;17.40;99.90;;;;;;6212471;23;20621;-68
2022/10/30 07:59:31;;;;;;;7.20;6.60;;;17.80;99.90;;;;;;6211525;23;20261;-68
2022/10/30 08:01:59;;;;;;;9.87;7.07;;;18.20;99.90;;;;;;6212024;23;20151;-67
2022/10/30 08:04:25;;;;;;;8.87;6.83;;;18.50;99.90;;;;;;6212016;23;20147;-67
2022/10/30 08:06:50;;;;;;;7.70;5.80;;;18.80;99.90;;;;;;6212384;23;20201;-68
2022/10/30 08:09:16;;;;;;;8.40;6.40;;;19.20;99.90;;;;;;6223237;23;20151;-67
2022/10/30 08:11:41;;;;;;;13.17;6.33;;;19.40;99.90;;;;;;6223546;23;20142;-68
2022/10/30 08:14:07;;;;;;;6.70;5.87;;;19.70;99.90;;;;;;6224130;23;20229;-68
2022/10/30 08:16:33;;;;;;;8.73;5.57;;;19.90;99.90;;;;;;6223625;23;20151;-68
2022/10/30 08:18:58;;;;;;;11.00;6.63;;;19.90;99.90;;;;;;6223807;23;20178;-68
2022/10/30 08:21:24;;;;;;;8.17;6.37;;;19.90;99.90;;;;;;6223315;23;20202;-68
2022/10/30 08:23:50;;;;;;;7.63;5.80;;;19.90;99.90;;;;;;6211872;23;20147;-68
2022/10/30 08:26:16;;;;;;;6.93;5.47;;;19.90;99.90;;;;;;6212742;23;20512;-67
2022/10/30 08:28:41;;;;;;;7.77;5.73;;;20.00;99.90;;;;;;6210583;23;20155;-68
2022/10/30 08:31:07;;;;;;;9.57;5.43;;;20.10;99.90;;;;;;6223332;23;20524;-68
2022/10/30 08:33:33;;;;;;;9.97;5.20;;;20.20;99.90;;;;;;6211953;23;20158;-68
2022/10/30 08:35:59;;;;;;;5.57;5.07;;;20.30;99.90;;;;;;6212287;23;20162;-68
2022/10/30 08:38:26;;;;;;;5.37;4.87;;;20.30;99.90;;;;;;6214054;23;20182;-68
2022/10/30 08:40:52;;;;;;;6.73;5.67;;;20.50;99.90;;;;;;6223334;23;20544;-67
2022/10/30 08:43:18;;;;;;;5.20;4.80;;;20.50;99.90;;;;;;6223529;23;20178;-68
2022/10/30 08:45:43;;;;;;;5.90;5.30;;;20.60;99.90;;;;;;6223487;23;20151;-67
2022/10/30 08:48:11;;;;;;;7.35;4.85;;;20.60;99.90;;;;;;6223461;23;20156;-68
2022/10/30 08:50:37;;;;;;;6.37;4.77;;;20.50;99.90;;;;;;6223174;23;20162;-68
2022/10/30 08:53:05;;;;;;;8.43;5.20;;;20.70;99.90;;;;;;6211805;23;20161;-68
2022/10/30 08:55:31;;;;;;;6.60;5.40;;;20.70;99.90;;;;;;6223913;23;20579;-67
2022/10/30 08:57:57;;;;;;;10.63;6.47;;;20.80;99.90;;;;;;6222477;23;20147;-70
2022/10/30 09:00:23;;;;;;;7.35;5.20;;;20.90;99.90;;;;;;6210797;23;20190;-67
2022/10/30 09:02:48;;;;;;;6.95;5.00;;;21.00;99.90;;;;;;6211939;23;20159;-67
2022/10/30 09:05:14;;;;;;;11.63;5.50;;;21.10;99.90;;;;;;6212294;23;20201;-68
2022/10/30 09:07:39;;;;;;;5.93;5.38;;;21.20;99.90;;;;;;6223225;23;20143;-67
2022/10/30 09:10:06;;;;;;;5.10;4.60;;;21.40;99.90;;;;;;6223232;23;20178;-69
2022/10/30 09:12:31;;;;;;;12.82;5.72;;;21.50;99.90;;;;;;6223206;23;20225;-68
2022/10/30 09:14:57;;;;;;;8.25;5.03;;;21.70;99.90;;;;;;6211971;23;20178;-67
2022/10/30 09:17:22;;;;;;;7.35;4.45;;;22.00;99.90;;;;;;6212033;23;20173;-67
2022/10/30 09:19:48;;;;;;;7.18;4.65;;;22.40;99.90;;;;;;6223664;23;20273;-68
2022/10/30 09:22:14;;;;;;;7.15;4.78;;;22.60;99.90;;;;;;6225524;23;20178;-68
2022/10/30 09:24:39;;;;;;;8.10;5.22;;;22.70;99.90;;;;;;6225750;23;20151;-67
2022/10/30 09:27:05;;;;;;;11.00;4.93;;;22.50;99.90;;;;;;6213921;23;20178;-68
2022/10/30 09:29:31;;;;;;;5.80;4.57;;;22.40;99.90;;;;;;6223240;23;20151;-67
2022/10/30 09:31:57;;;;;;;4.78;4.38;;;22.20;99.90;;;;;;6226278;23;20139;-67
2022/10/30 09:34:23;;;;;;;6.35;4.63;;;22.20;99.90;;;;;;6214152;23;20233;-67
2022/10/30 09:36:49;;;;;;;8.35;4.38;;;22.30;99.90;;;;;;6214023;23;20189;-67
2022/10/30 09:39:15;;;;;;;8.98;5.32;;;22.50;99.90;;;;;;6225129;23;20209;-67
2022/10/30 09:41:59;;;;;;;8.30;4.57;;;22.60;99.90;;;;;;6224995;23;20253;-67
2022/10/30 09:45:03;;;;;;;4.95;4.55;;;22.60;99.90;;;;;;6225405;23;20203;-67
2022/10/30 09:47:43;;;;;;;8.38;4.90;;;22.70;99.90;;;;;;6153247;23;20162;-68
2022/10/30 09:50:17;;;;;;;6.95;5.18;;;22.90;99.90;;;;;;6225169;23;20194;-67
2022/10/30 09:53:05;;;;;;;7.28;6.63;;;23.00;99.90;;;;;;6224928;23;20146;-66
2022/10/30 09:55:34;;;;;;;7.50;6.43;;;23.00;99.90;;;;;;6212734;23;20183;-66
2022/10/30 09:58:17;;;;;;;8.48;6.47;;;23.10;99.90;;;;;;6225420;23;20201;-66
2022/10/30 10:01:00;;;;;;;7.30;6.70;;;23.10;99.90;;;;;;6224816;23;20171;-66
2022/10/30 10:03:51;;;;;;;13.18;6.15;;;23.00;99.90;;;;;;6213618;23;20139;-67
2022/10/30 10:06:19;;;;;;;6.85;5.43;;;22.80;99.90;;;;;;6225138;23;20145;-66
2022/10/30 10:08:56;;;;;;;7.20;5.45;;;22.60;99.90;;;;;;6225016;23;20146;-65
2022/10/30 10:11:44;;;;;;;5.43;4.93;;;22.50;99.90;;;;;;6225040;23;20177;-67
2022/10/30 10:14:19;;;;;;;5.57;5.03;;;22.50;99.90;;;;;;6225155;23;20142;-66
2022/10/30 10:16:50;;;;;;;8.50;4.57;;;22.50;99.90;;;;;;6225075;23;20563;-67
2022/10/30 10:19:29;;;;;;;5.32;4.75;;;22.50;99.90;;;;;;6225452;23;20205;-66
2022/10/30 10:22:05;;;;;;;6.10;4.90;;;22.50;99.90;;;;;;6213402;23;20198;-66
2022/10/30 10:24:38;;;;;;;7.00;4.82;;;22.60;99.90;;;;;;6224708;23;20134;-66
2022/10/30 10:27:25;;;;;;;6.28;5.55;;;22.40;99.90;;;;;;6213304;23;20151;-66
2022/10/30 10:29:54;;;;;;;5.65;4.80;;;22.40;99.90;;;;;;6224579;23;20233;-68
2022/10/30 10:32:50;;;;;;;5.35;4.85;;;22.40;99.90;;;;;;6224748;23;20151;-68
2022/10/30 10:35:38;;;;;;;8.30;4.40;;;22.40;99.90;;;;;;6224639;23;20136;-67
2022/10/30 10:38:16;;;;;;;4.97;4.57;;;22.50;99.90;;;;;;6213335;23;20178;-66
2022/10/30 10:41:06;;;;;;;7.38;4.38;;;22.50;99.90;;;;;;6224498;23;20500;-66
2022/10/30 10:44:02;;;;;;;6.18;4.68;;;22.70;99.90;;;;;;6224479;23;20182;-67
2022/10/30 10:46:58;;;;;;;10.38;5.10;;;22.90;99.90;;;;;;6224743;23;20466;-66
2022/10/30 10:49:46;;;;;;;6.78;6.05;;;23.30;99.90;;;;;;6224421;23;20210;-67
2022/10/30 10:52:20;;;;;;;5.50;5.05;;;23.50;99.90;;;;;;6225176;23;20135;-66
2022/10/30 10:54:56;;;;;;;6.70;5.88;;;23.70;99.90;;;;;;6224390;23;20139;-67
2022/10/30 10:57:31;;;;;;;6.63;5.93;;;23.90;99.90;;;;;;6212923;23;20169;-67
2022/10/30 11:00:12;;;;;;;6.65;6.15;;;23.90;99.90;;;;;;6222259;23;20230;-66
2022/10/30 11:03:08;;;;;;;6.18;5.50;;;23.70;99.90;;;;;;6224205;23;20568;-67
2022/10/30 11:05:50;;;;;;;6.97;5.55;;;23.60;99.90;;;;;;6222596;23;20143;-68
2022/10/30 11:08:20;;;;;;;5.00;4.60;;;23.50;99.90;;;;;;6224431;23;20127;-67
2022/10/30 11:10:54;;;;;;;7.20;5.38;;;23.40;99.90;;;;;;6224298;23;20167;-68
2022/10/30 11:13:22;;;;;;;7.50;6.25;;;23.60;99.90;;;;;;6212924;23;20163;-66
2022/10/30 11:15:58;;;;;;;6.88;6.20;;;23.40;99.90;;;;;;6224170;23;20604;-66
2022/10/30 11:18:24;;;;;;;7.00;6.25;;;23.40;99.90;;;;;;6224188;23;20440;-66
2022/10/30 11:21:07;;;;;;;7.18;6.68;;;23.40;99.90;;;;;;6224098;23;20167;-66
2022/10/30 11:23:46;;;;;;;8.07;5.20;;;23.30;99.90;;;;;;6224725;23;20437;-67
2022/10/30 11:26:19;;;;;;;6.82;5.03;;;23.50;99.90;;;;;;6224471;23;20143;-67
2022/10/30 11:28:51;;;;;;;6.00;4.80;;;23.50;99.90;;;;;;6224266;23;20147;-67
2022/10/30 11:31:33;;;;;;;8.13;5.15;;;23.60;99.90;;;;;;6212186;23;20265;-67
2022/10/30 11:34:33;;;;;;;5.97;5.35;;;23.70;99.90;;;;;;6212532;23;20143;-67
2022/10/30 11:36:59;;;;;;;6.57;5.22;;;24.00;99.90;;;;;;6222177;23;20139;-67
2022/10/30 11:39:31;;;;;;;5.60;4.70;;;24.30;99.90;;;;;;6223805;23;20479;-67
2022/10/30 11:42:11;;;;;;;5.32;4.60;;;24.50;99.90;;;;;;6224100;23;20150;-67
2022/10/30 11:44:42;;;;;;;5.65;5.10;;;24.50;99.90;;;;;;6212364;23;20143;-67
2022/10/30 11:47:10;;;;;;;4.75;4.32;;;24.50;99.90;;;;;;6223896;23;20131;-67
2022/10/30 11:49:40;;;;;;;8.57;5.13;;;24.60;99.90;;;;;;6223618;23;20151;-67
2022/10/30 11:52:08;;;;;;;4.90;4.60;;;24.40;99.90;;;;;;6224249;23;20210;-68
2022/10/30 11:54:44;;;;;;;5.78;4.75;;;24.40;99.90;;;;;;6223965;23;20151;-67
2022/10/30 11:57:29;;;;;;;8.63;5.15;;;24.30;99.90;;;;;;6224035;23;20158;-67
2022/10/30 11:59:55;;;;;;;5.30;4.20;;;24.20;99.90;;;;;;6222953;23;20514;-67
2022/10/30 12:02:27;;;;;;;4.72;4.40;;;24.20;99.90;;;;;;6224018;23;20155;-67
2022/10/30 12:04:53;;;;;;;4.82;4.40;;;24.10;99.90;;;;;;6224363;23;20478;-67
2022/10/30 12:07:22;;;;;;;10.98;4.75;;;24.10;99.90;;;;;;6210508;23;20146;-68
2022/10/30 12:09:48;;;;;;;5.07;4.68;;;24.00;99.90;;;;;;6223267;23;20171;-67
2022/10/30 12:12:35;;;;;;;5.57;4.40;;;24.00;99.90;;;;;;6223966;23;20151;-68
2022/10/30 12:15:07;;;;;;;5.55;4.95;;;24.00;99.90;;;;;;6224465;23;20743;-68
2022/10/30 12:17:33;;;;;;;5.22;4.82;;;24.00;99.90;;;;;;6212158;23;20475;-68
2022/10/30 12:19:58;;;;;;;4.85;4.40;;;24.00;99.90;;;;;;6211533;23;20198;-68
2022/10/30 12:22:29;;;;;;;5.72;4.03;;;23.90;99.90;;;;;;6223656;23;20194;-68
2022/10/30 12:24:57;;;;;;;5.78;4.30;;;23.90;99.90;;;;;;6211948;23;20143;-68
2022/10/30 12:27:23;;;;;;;6.13;4.50;;;23.90;99.90;;;;;;6224103;23;20170;-68
2022/10/30 12:30:18;;;;;;;5.00;3.95;;;23.90;99.90;;;;;;6223003;23;20257;-68
2022/10/30 12:33:10;;;;;;;6.30;4.43;;;24.10;99.90;;;;;;6223512;23;20147;-68
2022/10/30 12:35:51;;;;;;;5.03;4.13;;;24.20;99.90;;;;;;6205864;23;20158;-68
2022/10/30 12:38:26;;;;;;;6.40;3.63;;;24.40;99.90;;;;;;6223675;23;20174;-68
2022/10/30 12:40:58;;;;;;;5.65;4.10;;;24.40;99.90;;;;;;6209341;23;20178;-68
2022/10/30 12:43:28;;;;;;;4.88;4.40;;;24.40;99.90;;;;;;6223839;23;20143;-68
2022/10/30 12:46:25;;;;;;;6.28;4.43;;;24.40;99.90;;;;;;6223691;23;20238;-67
2022/10/30 12:49:02;;;;;;;5.97;4.20;;;24.30;99.90;;;;;;6211940;23;20155;-67
2022/10/30 12:51:37;;;;;;;7.10;4.13;;;24.30;99.90;;;;;;6211904;23;20224;-67
2022/10/30 12:54:19;;;;;;;4.35;3.95;;;24.20;99.90;;;;;;6223753;23;20135;-67
2022/10/30 12:56:50;;;;;;;4.78;4.20;;;24.20;99.90;;;;;;6211793;23;20182;-67